createdAt,value
2023-01-18T00:02:59.661Z,50.83
2023-01-18T00:09:10.488Z,53.22
2023-01-18T00:12:15.553Z,49.42
2023-01-18T00:15:21.052Z,50.78
2023-01-18T00:18:29.039Z,49.33
2023-01-18T00:21:34.866Z,54.92
2023-01-18T00:24:40.074Z,53.92
2023-01-18T00:27:48.606Z,48.95
2023-01-18T00:30:54.845Z,50.25
2023-01-18T00:34:02.525Z,54.40
2023-01-18T00:37:08.569Z,47.88
2023-01-18T00:40:14.205Z,52.55
2023-01-18T00:43:31.855Z,48.63
2023-01-18T00:46:37.274Z,53.07
2023-01-18T00:49:45.303Z,57.38
2023-01-18T00:52:50.952Z,59.53
2023-01-18T00:55:56.312Z,51.53
2023-01-18T00:59:01.517Z,54.13
2023-01-18T01:02:07.369Z,56.10
2023-01-18T01:05:31.853Z,51.97
2023-01-18T01:08:37.388Z,48.40
2023-01-18T01:12:02.674Z,53.63
2023-01-18T01:15:20.860Z,52.22
2023-01-18T01:18:38.201Z,44.13
2023-01-18T01:21:58.551Z,53.45
2023-01-18T01:25:16.062Z,47.17
2023-01-18T01:28:21.432Z,48.83
2023-01-18T01:31:27.055Z,40.63
2023-01-18T01:34:32.780Z,47.63
2023-01-18T01:37:40.720Z,49.08
2023-01-18T01:40:46.146Z,52.50
2023-01-18T01:43:52.195Z,47.78
2023-01-18T01:46:59.076Z,52.08
2023-01-18T01:50:06.392Z,46.30
2023-01-18T01:53:15.167Z,43.80
2023-01-18T01:56:21.120Z,47.35
2023-01-18T01:59:27.072Z,43.88
2023-01-18T02:02:33.320Z,47.70
2023-01-18T02:05:39.917Z,43.03
2023-01-18T02:08:48.847Z,39.97
2023-01-18T02:11:55.053Z,47.05
2023-01-18T02:15:01.333Z,43.22
2023-01-18T02:18:19.646Z,40.65
2023-01-18T02:21:29.698Z,42.78
2023-01-18T02:24:58.786Z,44.38
2023-01-18T02:28:17.388Z,44.40
2023-01-18T02:34:32.051Z,37.13
2023-01-18T02:37:43.136Z,36.67
2023-01-18T02:41:06.528Z,42.55
2023-01-18T02:44:39.052Z,36.45
2023-01-18T02:47:45.131Z,44.67
2023-01-18T02:50:50.561Z,41.40
2023-01-18T02:53:55.779Z,39.22
2023-01-18T02:57:03.020Z,40.25
2023-01-18T03:00:17.968Z,41.97
2023-01-18T03:03:24.384Z,40.47
2023-01-18T03:06:31.819Z,52.22
2023-01-18T03:09:37.324Z,40.20
2023-01-18T03:12:49.671Z,44.38
2023-01-18T03:16:00.409Z,39.38
2023-01-18T03:19:20.048Z,45.47
2023-01-18T03:22:46.725Z,47.28
2023-01-18T03:25:53.960Z,42.10
2023-01-18T03:29:13.208Z,42.95
2023-01-18T03:32:34.392Z,39.63
2023-01-18T03:35:40.705Z,43.05
2023-01-18T03:38:46.372Z,38.90
2023-01-18T03:41:54.119Z,43.78
2023-01-18T03:45:03.254Z,41.83
2023-01-18T03:48:12.385Z,40.63
2023-01-18T03:51:19.515Z,41.70
2023-01-18T03:54:31.963Z,38.60
2023-01-18T03:57:38.939Z,46.88
2023-01-18T04:00:44.651Z,39.15
2023-01-18T04:03:53.961Z,42.65
2023-01-18T04:07:00.545Z,40.22
2023-01-18T04:10:06.028Z,40.20
2023-01-18T04:13:11.266Z,39.65
2023-01-18T04:16:17.028Z,38.72
2023-01-18T04:19:24.864Z,39.00
2023-01-18T04:22:30.475Z,38.70
2023-01-18T04:25:35.803Z,40.38
2023-01-18T04:28:41.269Z,37.13
2023-01-18T04:31:47.427Z,44.00
2023-01-18T04:34:55.623Z,39.25
2023-01-18T04:38:01.057Z,44.08
2023-01-18T04:41:06.669Z,38.40
2023-01-18T04:44:13.115Z,47.28
2023-01-18T04:47:18.900Z,32.15
2023-01-18T04:50:26.879Z,36.58
2023-01-18T04:53:32.362Z,37.35
2023-01-18T04:56:37.714Z,37.40
2023-01-18T04:59:46.260Z,39.90
2023-01-18T05:02:51.635Z,38.03
2023-01-18T05:06:00.286Z,34.53
2023-01-18T05:09:05.551Z,34.72
2023-01-18T05:12:11.092Z,37.20
2023-01-18T05:15:16.394Z,36.20
2023-01-18T05:18:22.165Z,36.63
2023-01-18T05:21:30.158Z,36.78
2023-01-18T05:24:35.702Z,41.58
2023-01-18T05:27:40.861Z,39.47
2023-01-18T05:30:48.495Z,36.40
2023-01-18T05:33:53.690Z,37.38
2023-01-18T05:37:01.916Z,36.63
2023-01-18T05:43:12.774Z,37.35
2023-01-18T05:46:18.270Z,36.85
2023-01-18T05:49:23.714Z,35.65
2023-01-18T05:52:31.554Z,34.22
2023-01-18T05:55:36.827Z,36.67
2023-01-18T05:58:42.054Z,40.15
2023-01-18T06:01:47.401Z,39.03
2023-01-18T06:04:52.575Z,42.17
2023-01-18T06:08:00.903Z,41.58
2023-01-18T06:11:06.673Z,42.38
2023-01-18T06:14:12.088Z,37.60
2023-01-18T06:17:17.538Z,38.08
2023-01-18T06:20:23.098Z,38.45
2023-01-18T06:23:31.264Z,34.63
2023-01-18T06:26:36.839Z,44.35
2023-01-18T06:29:42.097Z,35.72
2023-01-18T06:32:48.792Z,38.90
2023-01-18T06:35:54.085Z,41.20
2023-01-18T06:39:02.353Z,41.03
2023-01-18T06:42:08.184Z,38.45
2023-01-18T06:45:14.066Z,41.60
2023-01-18T06:48:19.495Z,36.13
2023-01-18T06:51:25.186Z,33.90
2023-01-18T06:54:34.433Z,38.80
2023-01-18T06:57:39.833Z,36.20
2023-01-18T07:00:45.211Z,39.13
2023-01-18T07:03:50.424Z,40.30
2023-01-18T07:06:57.034Z,40.78
2023-01-18T07:10:05.166Z,35.78
2023-01-18T07:13:10.485Z,41.38
2023-01-18T07:16:18.345Z,40.72
2023-01-18T07:19:23.726Z,34.72
2023-01-18T07:22:29.414Z,36.13
2023-01-18T07:25:37.342Z,40.13
2023-01-18T07:28:42.483Z,43.78
2023-01-18T07:31:47.922Z,38.58
2023-01-18T07:34:53.303Z,41.70
2023-01-18T07:37:58.662Z,47.55
2023-01-18T07:41:08.731Z,47.63
2023-01-18T07:44:14.188Z,42.15
2023-01-18T07:47:19.622Z,34.65
2023-01-18T07:50:25.335Z,37.25
2023-01-18T07:53:31.124Z,38.60
2023-01-18T07:56:39.360Z,37.90
2023-01-18T07:59:44.773Z,34.55
2023-01-18T08:02:53.425Z,37.35
2023-01-18T08:06:01.388Z,34.85
2023-01-18T08:09:07.227Z,33.17
2023-01-18T08:12:18.366Z,34.30
2023-01-18T08:15:24.058Z,37.30
2023-01-18T08:18:29.406Z,35.42
2023-01-18T08:21:34.534Z,34.67
2023-01-18T08:24:39.781Z,38.72
2023-01-18T08:27:48.156Z,38.00
2023-01-18T08:30:53.569Z,35.20
2023-01-18T08:33:59.076Z,41.63
2023-01-18T08:37:04.446Z,36.45
2023-01-18T08:40:10.636Z,43.95
2023-01-18T08:43:18.791Z,35.38
2023-01-18T08:46:24.684Z,33.50
2023-01-18T08:49:30.006Z,38.60
2023-01-18T08:52:36.043Z,36.42
2023-01-18T08:55:41.490Z,42.88
2023-01-18T08:58:49.502Z,34.33
2023-01-18T09:01:54.980Z,35.05
2023-01-18T09:05:00.300Z,34.75
2023-01-18T09:08:05.857Z,38.58
2023-01-18T09:11:11.939Z,44.65
2023-01-18T09:14:19.988Z,40.35
2023-01-18T09:17:25.461Z,32.22
2023-01-18T09:20:30.708Z,40.97
2023-01-18T09:23:36.051Z,37.42
2023-01-18T09:26:41.786Z,35.35
2023-01-18T09:29:52.459Z,37.97
2023-01-18T09:32:58.433Z,37.05
2023-01-18T09:36:05.007Z,41.45
2023-01-18T09:39:10.327Z,40.17
2023-01-18T09:42:21.068Z,40.38
2023-01-18T09:45:32.388Z,39.22
2023-01-18T09:48:40.003Z,37.22
2023-01-18T09:51:48.981Z,36.57
2023-01-18T09:54:56.746Z,37.47
2023-01-18T09:58:08.943Z,40.72
2023-01-18T10:01:19.138Z,36.53
2023-01-18T10:04:27.142Z,43.22
2023-01-18T10:07:34.225Z,42.25
2023-01-18T10:10:40.470Z,42.10
2023-01-18T10:13:51.231Z,41.72
2023-01-18T10:17:00.942Z,38.72
2023-01-18T10:20:13.147Z,41.95
2023-01-18T10:23:24.624Z,41.95
2023-01-18T10:26:32.462Z,37.90
2023-01-18T10:29:45.533Z,37.67
2023-01-18T10:32:55.832Z,35.60
2023-01-18T10:36:03.670Z,37.10
2023-01-18T10:39:11.530Z,34.83
2023-01-18T10:42:21.456Z,33.72
2023-01-18T10:45:28.092Z,38.63
2023-01-18T10:48:36.582Z,39.38
2023-01-18T10:51:41.747Z,42.33
2023-01-18T10:54:52.711Z,37.33
2023-01-18T10:57:58.438Z,36.72
2023-01-18T11:01:05.433Z,34.75
2023-01-18T11:04:21.671Z,37.83
2023-01-18T11:07:28.471Z,39.05
2023-01-18T11:10:41.974Z,41.53
2023-01-18T11:13:48.615Z,41.80
2023-01-18T11:17:00.327Z,40.03
2023-01-18T11:20:18.713Z,36.28
2023-01-18T11:23:25.951Z,38.22
2023-01-18T11:26:31.385Z,39.22
2023-01-18T11:29:38.934Z,35.55
2023-01-18T11:32:44.359Z,36.30
2023-01-18T11:35:56.151Z,40.85
2023-01-18T11:39:20.429Z,42.35
2023-01-18T11:42:28.048Z,38.05
2023-01-18T11:45:36.134Z,45.93
2023-01-18T11:48:42.959Z,42.55
2023-01-18T11:51:53.708Z,35.47
2023-01-18T11:55:01.359Z,40.28
2023-01-18T11:58:14.768Z,39.65
2023-01-18T12:01:37.655Z,44.28
2023-01-18T12:04:50.023Z,44.95
2023-01-18T12:08:01.247Z,41.65
2023-01-18T12:11:12.951Z,40.10
2023-01-18T12:14:26.421Z,39.13
2023-01-18T12:17:45.965Z,44.40
2023-01-18T12:20:58.489Z,41.42
2023-01-18T12:24:23.549Z,39.90
2023-01-18T12:27:32.714Z,37.22
2023-01-18T12:30:46.292Z,37.08
2023-01-18T12:33:55.953Z,35.67
2023-01-18T12:37:15.120Z,35.05
2023-01-18T12:40:41.435Z,40.03
2023-01-18T12:43:57.607Z,33.88
2023-01-18T12:47:10.524Z,32.95
2023-01-18T12:50:19.840Z,35.38
2023-01-18T12:53:32.701Z,29.95
2023-01-18T12:56:40.615Z,36.35
2023-01-18T12:59:53.714Z,34.65
2023-01-18T13:02:59.755Z,36.35
2023-01-18T13:06:05.922Z,34.13
2023-01-18T13:09:14.812Z,32.90
2023-01-18T13:12:20.558Z,29.15
2023-01-18T13:15:31.687Z,33.70
2023-01-18T13:18:40.740Z,30.42
2023-01-18T13:21:55.399Z,28.25
2023-01-18T13:25:12.714Z,30.63
2023-01-18T13:28:20.026Z,30.55
2023-01-18T13:31:35.584Z,37.92
2023-01-18T13:34:48.352Z,27.17
2023-01-18T13:37:56.406Z,28.08
2023-01-18T13:41:04.173Z,28.10
2023-01-18T13:44:15.432Z,27.50
2023-01-18T13:47:35.691Z,29.35
2023-01-18T13:50:52.752Z,32.35
2023-01-18T13:53:58.432Z,31.35
2023-01-18T13:57:15.920Z,28.60
2023-01-18T14:00:25.977Z,27.55
2023-01-18T14:03:32.918Z,29.48
2023-01-18T14:06:44.675Z,27.52
2023-01-18T14:09:51.906Z,26.73
2023-01-18T14:12:58.507Z,32.75
2023-01-18T14:16:05.426Z,25.40
2023-01-18T14:19:17.435Z,28.40
2023-01-18T14:22:32.410Z,25.42
2023-01-18T14:25:49.073Z,27.67
2023-01-18T14:28:56.971Z,30.98
2023-01-18T14:32:02.371Z,29.65
2023-01-18T14:35:18.973Z,26.40
2023-01-18T14:38:27.443Z,22.52
2023-01-18T14:41:33.559Z,27.92
2023-01-18T14:44:56.898Z,31.92
2023-01-18T14:48:04.804Z,29.88
2023-01-18T14:51:10.269Z,27.85
2023-01-18T14:54:19.980Z,31.67
2023-01-18T14:57:25.693Z,26.58
2023-01-18T15:00:31.446Z,27.98
2023-01-18T15:03:36.635Z,26.10
2023-01-18T15:06:43.937Z,27.95
2023-01-18T15:09:52.306Z,24.80
2023-01-18T15:13:01.037Z,27.23
2023-01-18T15:16:06.460Z,25.80
2023-01-18T15:19:15.856Z,24.77
2023-01-18T15:22:21.019Z,25.30
2023-01-18T15:25:31.911Z,21.98
2023-01-18T15:28:36.929Z,22.85
2023-01-18T15:31:49.003Z,26.45
2023-01-18T15:34:55.241Z,27.77
2023-01-18T15:38:02.522Z,28.92
2023-01-18T15:41:12.100Z,33.20
2023-01-18T15:44:41.337Z,24.15
2023-01-18T15:47:50.152Z,24.50
2023-01-18T15:50:56.263Z,24.30
2023-01-18T15:54:02.046Z,28.13
2023-01-18T15:57:16.922Z,24.52
2023-01-18T16:00:29.043Z,28.90
2023-01-18T16:03:37.768Z,33.60
2023-01-18T16:06:45.719Z,27.05
2023-01-18T16:09:51.173Z,21.88
2023-01-18T16:12:59.339Z,24.77
2023-01-18T16:16:16.948Z,20.27
2023-01-18T16:19:25.015Z,25.45
2023-01-18T16:22:31.520Z,37.00
2023-01-18T16:25:36.905Z,23.75
2023-01-18T16:28:45.113Z,23.40
2023-01-18T16:31:51.263Z,21.75
2023-01-18T16:34:57.015Z,28.65
2023-01-18T16:38:02.693Z,27.00
2023-01-18T16:41:08.488Z,23.65
2023-01-18T16:44:16.647Z,25.38
2023-01-18T16:47:22.392Z,24.75
2023-01-18T16:50:28.021Z,23.92
2023-01-18T16:53:33.821Z,24.48
2023-01-18T16:56:39.406Z,25.65
2023-01-18T16:59:47.565Z,30.08
2023-01-18T17:06:02.671Z,24.35
2023-01-18T17:09:13.648Z,27.63
2023-01-18T17:12:19.209Z,32.70
2023-01-18T17:15:28.505Z,27.60
2023-01-18T17:18:33.822Z,31.42
2023-01-18T17:21:39.062Z,33.75
2023-01-18T17:24:45.301Z,29.73
2023-01-18T17:27:50.973Z,28.10
2023-01-18T17:30:59.181Z,36.45
2023-01-18T17:37:10.985Z,34.08
2023-01-18T17:40:24.077Z,35.22
2023-01-18T17:43:34.393Z,34.00
2023-01-18T17:46:43.015Z,34.53
2023-01-18T17:49:48.379Z,33.85
2023-01-18T17:52:54.496Z,34.00
2023-01-18T17:56:00.037Z,37.53
2023-01-18T17:59:07.971Z,33.38
2023-01-18T18:02:16.660Z,42.95
2023-01-18T18:05:22.449Z,38.05
2023-01-18T18:08:27.987Z,33.90
2023-01-18T18:11:33.734Z,36.97
2023-01-18T18:14:40.542Z,39.90
2023-01-18T18:17:48.441Z,38.22
2023-01-18T18:20:59.363Z,72.13
2023-01-18T18:24:04.922Z,36.35
2023-01-18T18:27:10.514Z,34.85
2023-01-18T18:30:15.887Z,37.47
2023-01-18T18:33:24.086Z,36.78
2023-01-18T18:36:30.279Z,36.90
2023-01-18T18:39:35.528Z,38.92
2023-01-18T18:42:47.310Z,34.75
2023-01-18T18:45:58.131Z,44.17
2023-01-18T18:49:07.202Z,39.42
2023-01-18T18:52:12.714Z,40.25
2023-01-18T18:55:18.665Z,36.53
2023-01-18T18:58:25.013Z,39.90
2023-01-18T19:01:31.986Z,41.97
2023-01-18T19:04:40.274Z,41.10
2023-01-18T19:07:47.299Z,39.33
2023-01-18T19:10:53.047Z,38.05
2023-01-18T19:13:58.838Z,37.78
2023-01-18T19:17:04.341Z,36.42
2023-01-18T19:20:14.151Z,44.05
2023-01-18T19:23:21.118Z,38.75
2023-01-18T19:26:26.654Z,43.70
2023-01-18T19:29:32.184Z,38.83
2023-01-18T19:32:37.159Z,42.92
2023-01-18T19:35:46.053Z,37.97
2023-01-18T19:38:59.278Z,46.30
2023-01-18T19:42:06.850Z,43.25
2023-01-18T19:45:19.557Z,40.72
2023-01-18T19:48:33.331Z,46.47
2023-01-18T19:51:41.597Z,41.30
2023-01-18T19:54:47.360Z,43.95
2023-01-18T19:57:52.535Z,45.55
2023-01-18T20:00:59.648Z,44.22
2023-01-18T20:04:05.066Z,40.83
2023-01-18T20:07:16.529Z,39.63
2023-01-18T20:10:21.812Z,47.25
2023-01-18T20:13:27.482Z,41.72
2023-01-18T20:16:32.880Z,47.88
2023-01-18T20:19:38.563Z,43.83
2023-01-18T20:22:47.149Z,46.50
2023-01-18T20:25:54.845Z,40.22
2023-01-18T20:29:00.677Z,45.03
2023-01-18T20:32:15.509Z,43.67
2023-01-18T20:35:23.004Z,46.45
2023-01-18T20:38:30.933Z,41.88
2023-01-18T20:41:36.376Z,45.42
2023-01-18T20:44:42.852Z,48.83
2023-01-18T20:47:48.380Z,46.08
2023-01-18T20:50:53.629Z,48.88
2023-01-18T20:54:02.372Z,47.22
2023-01-18T20:57:08.156Z,47.45
2023-01-18T21:00:14.601Z,46.88
2023-01-18T21:03:20.383Z,45.72
2023-01-18T21:06:26.241Z,55.22
2023-01-18T21:09:33.885Z,46.80
2023-01-18T21:12:39.406Z,47.47
2023-01-18T21:15:46.027Z,46.85
2023-01-18T21:18:52.879Z,50.05
2023-01-18T21:21:58.095Z,44.55
2023-01-18T21:25:05.590Z,44.85
2023-01-18T21:28:11.015Z,46.40
2023-01-18T21:31:16.275Z,46.78
2023-01-18T21:34:21.857Z,44.08
2023-01-18T21:37:28.261Z,45.60
2023-01-18T21:40:36.518Z,41.50
2023-01-18T21:43:54.158Z,47.05
2023-01-18T21:46:59.810Z,46.03
2023-01-18T21:50:20.034Z,43.90
2023-01-18T21:53:37.617Z,40.92
2023-01-18T21:56:46.105Z,44.03
2023-01-18T21:59:51.351Z,41.80
2023-01-18T22:02:57.044Z,46.17
2023-01-18T22:06:03.670Z,47.13
2023-01-18T22:09:09.070Z,43.30
2023-01-18T22:12:16.840Z,45.45
2023-01-18T22:15:23.356Z,49.55
2023-01-18T22:18:28.916Z,45.67
2023-01-18T22:21:34.666Z,47.33
2023-01-18T22:24:40.168Z,46.75
2023-01-18T22:27:48.091Z,45.20
2023-01-18T22:30:53.954Z,40.88
2023-01-18T22:33:59.571Z,44.47
2023-01-18T22:37:05.927Z,50.13
2023-01-18T22:40:12.128Z,42.75
2023-01-18T22:43:21.135Z,44.67
2023-01-18T22:46:27.001Z,41.20
2023-01-18T22:49:32.627Z,43.75
2023-01-18T22:52:38.041Z,43.28
2023-01-18T22:55:43.824Z,32.10
2023-01-18T22:58:51.972Z,34.88
2023-01-18T23:01:58.031Z,36.97
2023-01-18T23:05:03.407Z,35.30
2023-01-18T23:08:10.086Z,36.33
2023-01-18T23:11:16.273Z,34.10
2023-01-18T23:14:36.350Z,32.67
2023-01-18T23:17:43.373Z,32.92
2023-01-18T23:20:49.164Z,32.53
2023-01-18T23:23:54.780Z,32.53
2023-01-18T23:27:00.188Z,35.50
2023-01-18T23:30:08.409Z,28.92
2023-01-18T23:33:13.867Z,34.65
2023-01-18T23:36:19.145Z,33.33
2023-01-18T23:39:36.927Z,36.63
2023-01-18T23:42:54.560Z,36.20
2023-01-18T23:46:15.051Z,31.20
2023-01-18T23:49:32.783Z,34.28
2023-01-18T23:52:50.595Z,37.25
2023-01-18T23:55:56.400Z,37.33
2023-01-18T23:59:02.651Z,30.63
